createdAt,value
2018-04-01T00:01:35.971Z,7.10
2018-04-01T00:04:03.044Z,7.10
2018-04-01T00:06:30.740Z,7.00
2018-04-01T00:08:57.783Z,7.00
2018-04-01T00:11:26.339Z,7.10
2018-04-01T00:13:53.512Z,7.00
2018-04-01T00:16:20.557Z,7.10
2018-04-01T00:18:47.598Z,7.10
2018-04-01T00:21:14.621Z,7.20
2018-04-01T00:23:41.652Z,7.20
2018-04-01T00:26:08.679Z,7.30
2018-04-01T00:28:36.490Z,7.40
2018-04-01T00:31:03.535Z,7.30
2018-04-01T00:33:31.348Z,7.20
2018-04-01T00:35:58.383Z,7.20
2018-04-01T00:38:25.418Z,7.20
2018-04-01T00:40:52.457Z,7.20
2018-04-01T00:43:19.527Z,7.20
2018-04-01T00:45:46.579Z,7.20
2018-04-01T00:48:13.639Z,7.10
2018-04-01T00:50:40.693Z,7.20
2018-04-01T00:53:07.731Z,7.30
2018-04-01T00:55:34.823Z,7.30
2018-04-01T00:58:01.855Z,7.20
2018-04-01T01:00:29.643Z,7.30
2018-04-01T01:02:56.706Z,7.20
2018-04-01T01:05:23.726Z,7.30
2018-04-01T01:07:50.752Z,7.20
2018-04-01T01:10:17.832Z,7.20
2018-04-01T01:12:44.853Z,7.20
2018-04-01T01:15:11.887Z,7.30
2018-04-01T01:17:38.911Z,7.30
2018-04-01T01:20:05.949Z,7.30
2018-04-01T01:22:32.984Z,7.30
2018-04-01T01:25:00.034Z,7.30
2018-04-01T01:27:27.071Z,7.30
2018-04-01T01:29:54.116Z,7.30
2018-04-01T01:32:21.146Z,7.40
2018-04-01T01:34:48.172Z,7.40
2018-04-01T01:37:15.968Z,7.40
2018-04-01T01:39:43.771Z,7.30
2018-04-01T01:42:10.821Z,7.30
2018-04-01T01:44:37.855Z,7.40
2018-04-01T01:47:04.981Z,7.20
2018-04-01T01:49:32.774Z,6.90
2018-04-01T01:51:59.819Z,6.90
2018-04-01T01:54:27.611Z,7.00
2018-04-01T01:56:54.684Z,6.90
2018-04-01T01:59:21.751Z,7.00
2018-04-01T02:01:48.809Z,7.10
2018-04-01T02:04:15.844Z,7.10
2018-04-01T02:06:42.884Z,7.00
2018-04-01T02:09:09.940Z,7.00
2018-04-01T02:11:37.011Z,7.10
2018-04-01T02:14:04.803Z,7.20
2018-04-01T02:16:31.886Z,7.10
2018-04-01T02:18:58.943Z,7.20
2018-04-01T02:21:26.017Z,7.30
2018-04-01T02:23:53.917Z,7.30
2018-04-01T02:26:21.567Z,7.30
2018-04-01T02:28:48.611Z,7.40
2018-04-01T02:31:16.411Z,7.40
2018-04-01T02:33:43.479Z,7.30
2018-04-01T02:36:10.536Z,7.30
2018-04-01T02:38:37.605Z,7.30
2018-04-01T02:41:04.643Z,7.30
2018-04-01T02:43:31.697Z,7.30
2018-04-01T02:45:58.752Z,7.30
2018-04-01T02:48:25.804Z,7.30
2018-04-01T02:50:52.835Z,7.30
2018-04-01T02:53:19.869Z,7.20
2018-04-01T02:55:46.960Z,7.30
2018-04-01T02:58:14.853Z,7.30
2018-04-01T03:00:41.928Z,7.20
2018-04-01T03:03:08.968Z,7.20
2018-04-01T03:05:35.990Z,7.20
2018-04-01T03:08:03.013Z,7.20
2018-04-01T03:10:30.096Z,7.10
2018-04-01T03:12:57.140Z,7.10
2018-04-01T03:15:24.179Z,7.10
2018-04-01T03:17:51.231Z,7.10
2018-04-01T03:20:18.259Z,7.10
2018-04-01T03:22:45.447Z,7.10
2018-04-01T03:25:12.479Z,7.10
2018-04-01T03:27:40.292Z,7.20
2018-04-01T03:30:07.336Z,7.20
2018-04-01T03:32:34.368Z,7.10
2018-04-01T03:35:01.468Z,7.10
2018-04-01T03:37:28.516Z,7.20
2018-04-01T03:39:55.579Z,7.10
2018-04-01T03:42:22.614Z,7.10
2018-04-01T03:44:49.651Z,7.20
2018-04-01T03:47:16.683Z,7.30
2018-04-01T03:49:43.753Z,7.30
2018-04-01T03:52:10.799Z,7.20
2018-04-01T03:54:37.848Z,7.20
2018-04-01T03:57:04.897Z,7.20
2018-04-01T03:59:31.948Z,7.20
2018-04-01T04:01:59.034Z,7.30
2018-04-01T04:04:26.290Z,7.30
2018-04-01T04:06:54.095Z,7.10
2018-04-01T04:09:21.136Z,7.10
2018-04-01T04:11:48.155Z,7.20
2018-04-01T04:14:15.967Z,7.20
2018-04-01T04:16:43.011Z,7.20
2018-04-01T04:19:10.046Z,7.00
2018-04-01T04:21:37.079Z,7.00
2018-04-01T04:24:04.108Z,7.10
2018-04-01T04:26:31.908Z,7.10
2018-04-01T04:28:58.991Z,7.00
2018-04-01T04:31:26.570Z,7.00
2018-04-01T04:33:53.621Z,7.10
2018-04-01T04:36:20.702Z,7.00
2018-04-01T04:38:47.766Z,7.10
2018-04-01T04:41:14.807Z,6.90
2018-04-01T04:43:41.838Z,6.90
2018-04-01T04:46:09.007Z,6.80
2018-04-01T04:48:36.069Z,6.80
2018-04-01T04:51:03.101Z,6.70
2018-04-01T04:53:30.927Z,6.80
2018-04-01T04:55:57.961Z,6.80
2018-04-01T04:58:25.032Z,6.80
2018-04-01T05:00:52.077Z,6.80
2018-04-01T05:03:19.114Z,6.80
2018-04-01T05:05:46.147Z,6.70
2018-04-01T05:08:13.184Z,6.60
2018-04-01T05:10:40.225Z,6.60
2018-04-01T05:13:07.258Z,6.60
2018-04-01T05:15:34.302Z,6.60
2018-04-01T05:18:02.162Z,6.50
2018-04-01T05:20:29.959Z,6.60
2018-04-01T05:22:56.986Z,6.60
2018-04-01T05:25:24.358Z,6.60
2018-04-01T05:27:51.411Z,6.50
2018-04-01T05:30:18.456Z,6.50
2018-04-01T05:32:45.516Z,6.50
2018-04-01T05:35:12.546Z,6.50
2018-04-01T05:37:39.588Z,6.50
2018-04-01T05:40:07.389Z,6.50
2018-04-01T05:42:34.432Z,6.50
2018-04-01T05:45:01.522Z,6.60
2018-04-01T05:47:28.575Z,6.60
2018-04-01T05:49:55.607Z,6.60
2018-04-01T05:52:22.640Z,6.60
2018-04-01T05:54:49.661Z,6.60
2018-04-01T05:57:16.722Z,6.60
2018-04-01T05:59:43.764Z,6.50
2018-04-01T06:02:10.808Z,6.50
2018-04-01T06:04:37.843Z,6.50
2018-04-01T06:07:04.886Z,6.50
2018-04-01T06:09:32.689Z,6.60
2018-04-01T06:11:59.775Z,6.50
2018-04-01T06:14:26.831Z,6.60
2018-04-01T06:16:53.875Z,6.60
2018-04-01T06:19:20.915Z,6.50
2018-04-01T06:21:47.959Z,6.60
2018-04-01T06:24:15.022Z,6.50
2018-04-01T06:26:42.071Z,6.50
2018-04-01T06:29:09.134Z,6.50
2018-04-01T06:31:36.940Z,6.60
2018-04-01T06:34:04.045Z,6.60
2018-04-01T06:36:31.869Z,6.60
2018-04-01T06:38:58.939Z,6.60
2018-04-01T06:41:26.039Z,6.70
2018-04-01T06:43:53.137Z,6.70
2018-04-01T06:46:20.166Z,6.60
2018-04-01T06:48:47.198Z,6.60
2018-04-01T06:51:14.234Z,6.70
2018-04-01T06:53:41.389Z,6.80
2018-04-01T06:56:08.469Z,6.70
2018-04-01T06:58:35.523Z,6.80
2018-04-01T07:01:02.573Z,6.80
2018-04-01T07:03:29.675Z,6.80
2018-04-01T07:05:56.736Z,6.80
2018-04-01T07:08:24.593Z,6.90
2018-04-01T07:10:51.635Z,6.80
2018-04-01T07:13:19.544Z,6.70
2018-04-01T07:15:46.683Z,6.70
2018-04-01T07:18:13.708Z,6.70
2018-04-01T07:20:41.510Z,6.80
2018-04-01T07:23:08.608Z,6.80
2018-04-01T07:25:35.667Z,6.90
2018-04-01T07:28:03.474Z,6.70
2018-04-01T07:30:30.501Z,6.70
2018-04-01T07:32:57.549Z,6.70
2018-04-01T07:35:24.598Z,6.70
2018-04-01T07:37:52.088Z,6.80
2018-04-01T07:40:19.151Z,6.80
2018-04-01T07:42:46.180Z,6.80
2018-04-01T07:45:13.220Z,6.80
2018-04-01T07:47:40.402Z,6.80
2018-04-01T07:50:07.496Z,6.80
2018-04-01T07:52:34.549Z,6.90
2018-04-01T07:55:02.421Z,6.90
2018-04-01T07:57:29.485Z,6.90
2018-04-01T07:59:56.537Z,7.00
2018-04-01T08:02:25.261Z,6.80
2018-04-01T08:04:52.296Z,6.80
2018-04-01T08:07:19.438Z,6.80
2018-04-01T08:09:46.474Z,6.90
2018-04-01T08:12:13.495Z,7.00
2018-04-01T08:14:41.294Z,7.00
2018-04-01T08:17:08.348Z,7.00
2018-04-01T08:19:35.387Z,7.10
2018-04-01T08:22:02.445Z,7.00
2018-04-01T08:24:29.561Z,7.00
2018-04-01T08:26:57.369Z,7.30
2018-04-01T08:29:24.962Z,7.30
2018-04-01T08:31:53.827Z,7.40
2018-04-01T08:34:21.605Z,7.50
2018-04-01T08:36:48.656Z,7.50
2018-04-01T08:39:15.729Z,7.40
2018-04-01T08:41:42.763Z,7.50
2018-04-01T08:44:09.836Z,7.60
2018-04-01T08:46:37.652Z,7.80
2018-04-01T08:49:04.778Z,7.80
2018-04-01T08:51:32.068Z,7.90
2018-04-01T08:53:59.121Z,8.00
2018-04-01T08:56:26.164Z,8.10
2018-04-01T08:58:53.275Z,8.00
2018-04-01T09:01:20.303Z,8.10
2018-04-01T09:03:48.308Z,8.10
2018-04-01T09:06:15.377Z,8.20
2018-04-01T09:08:42.505Z,8.10
2018-04-01T09:11:09.550Z,8.00
2018-04-01T09:13:36.605Z,7.90
2018-04-01T09:16:05.863Z,7.80
2018-04-01T09:18:32.944Z,7.80
2018-04-01T09:20:59.977Z,7.80
2018-04-01T09:23:27.009Z,7.90
2018-04-01T09:25:54.076Z,8.00
2018-04-01T09:28:21.136Z,8.20
2018-04-01T09:30:48.956Z,8.50
2018-04-01T09:33:17.440Z,8.50
2018-04-01T09:35:44.484Z,8.90
2018-04-01T09:38:11.607Z,9.20
2018-04-01T09:40:38.632Z,9.50
2018-04-01T09:43:05.689Z,9.60
2018-04-01T09:45:32.723Z,9.60
2018-04-01T09:47:59.761Z,9.30
2018-04-01T09:50:27.568Z,8.80
2018-04-01T09:52:54.661Z,8.80
2018-04-01T09:55:21.721Z,8.70
2018-04-01T09:57:50.299Z,8.50
2018-04-01T10:00:23.661Z,8.60
2018-04-01T10:02:51.231Z,8.60
2018-04-01T10:05:18.747Z,8.60
2018-04-01T10:07:47.032Z,8.50
2018-04-01T10:10:14.572Z,8.50
2018-04-01T10:12:42.869Z,8.30
2018-04-01T10:15:11.290Z,8.30
2018-04-01T10:17:38.828Z,8.50
2018-04-01T10:20:06.461Z,8.50
2018-04-01T10:22:34.605Z,9.00
2018-04-01T10:25:02.151Z,10.10
2018-04-01T10:27:29.763Z,11.00
2018-04-01T10:29:57.292Z,11.50
2018-04-01T10:32:24.822Z,11.00
2018-04-01T10:34:52.399Z,10.10
2018-04-01T10:37:19.987Z,9.50
2018-04-01T10:39:47.503Z,9.30
2018-04-01T10:42:15.171Z,9.50
2018-04-01T10:44:43.145Z,10.20
2018-04-01T10:47:10.791Z,10.20
2018-04-01T10:49:38.330Z,9.70
2018-04-01T10:52:06.640Z,9.40
2018-04-01T10:54:33.680Z,9.30
2018-04-01T10:57:00.791Z,9.20
2018-04-01T10:59:27.847Z,9.30
2018-04-01T11:01:55.219Z,9.30
2018-04-01T11:04:23.051Z,9.10
2018-04-01T11:06:50.094Z,9.10
2018-04-01T11:09:17.164Z,9.20
2018-04-01T11:11:44.281Z,9.30
2018-04-01T11:14:11.322Z,9.30
2018-04-01T11:16:38.363Z,9.20
2018-04-01T11:19:05.418Z,9.10
2018-04-01T11:21:32.461Z,9.00
2018-04-01T11:23:59.547Z,8.80
2018-04-01T11:26:27.336Z,8.70
2018-04-01T11:28:55.160Z,8.50
2018-04-01T11:31:22.200Z,8.50
2018-04-01T11:33:49.235Z,8.20
2018-04-01T11:36:16.278Z,8.00
2018-04-01T11:38:43.438Z,7.70
2018-04-01T11:41:10.477Z,7.70
2018-04-01T11:43:37.565Z,7.60
2018-04-01T11:46:04.611Z,7.50
2018-04-01T11:48:31.660Z,7.60
2018-04-01T11:50:58.782Z,7.70
2018-04-01T11:53:25.954Z,7.60
2018-04-01T11:55:53.759Z,7.50
2018-04-01T11:58:21.560Z,7.30
2018-04-01T12:00:49.345Z,7.30
2018-04-01T12:03:16.363Z,7.30
2018-04-01T12:05:43.411Z,7.40
2018-04-01T12:08:10.490Z,7.20
2018-04-01T12:10:37.524Z,7.30
2018-04-01T12:13:04.574Z,7.40
2018-04-01T12:15:32.020Z,7.40
2018-04-01T12:17:59.060Z,7.40
2018-04-01T12:20:26.103Z,7.40
2018-04-01T12:22:53.180Z,7.40
2018-04-01T12:25:20.553Z,7.40
2018-04-01T12:27:47.603Z,7.40
2018-04-01T12:30:14.639Z,7.40
2018-04-01T12:32:41.671Z,7.50
2018-04-01T12:35:08.720Z,7.50
2018-04-01T12:37:35.768Z,7.50
2018-04-01T12:40:02.803Z,7.60
2018-04-01T12:42:30.621Z,7.60
2018-04-01T12:44:57.720Z,7.50
2018-04-01T12:47:25.561Z,7.50
2018-04-01T12:49:52.700Z,7.50
2018-04-01T12:52:19.718Z,7.60
2018-04-01T12:54:46.766Z,7.60
2018-04-01T12:57:13.812Z,7.40
2018-04-01T12:59:40.969Z,7.50
2018-04-01T13:02:08.011Z,7.60
2018-04-01T13:04:35.079Z,7.60
2018-04-01T13:07:02.133Z,7.60
2018-04-01T13:09:29.176Z,7.60
2018-04-01T13:11:56.336Z,7.50
2018-04-01T13:14:24.471Z,7.60
2018-04-01T13:16:51.528Z,7.60
2018-04-01T13:19:18.605Z,7.80
2018-04-01T13:21:45.640Z,7.80
2018-04-01T13:24:12.735Z,7.80
2018-04-01T13:26:39.739Z,8.00
2018-04-01T13:29:06.790Z,7.90
2018-04-01T13:31:34.637Z,7.80
2018-04-01T13:34:01.695Z,7.90
2018-04-01T13:36:28.766Z,7.80
2018-04-01T13:38:55.871Z,7.70
2018-04-01T13:41:22.942Z,7.70
2018-04-01T13:43:49.976Z,7.70
2018-04-01T13:46:17.220Z,7.50
2018-04-01T13:48:44.274Z,7.50
2018-04-01T13:51:11.329Z,7.60
2018-04-01T13:53:38.376Z,7.60
2018-04-01T13:56:06.603Z,7.60
2018-04-01T13:58:33.992Z,7.60
2018-04-01T14:01:01.078Z,7.70
2018-04-01T14:03:28.232Z,7.70
2018-04-01T14:05:55.439Z,7.60
2018-04-01T14:08:22.470Z,7.50
2018-04-01T14:10:49.519Z,7.50
2018-04-01T14:13:17.180Z,7.50
2018-04-01T14:15:44.220Z,7.60
2018-04-01T14:18:11.383Z,7.60
2018-04-01T14:20:38.439Z,7.70
2018-04-01T14:23:05.703Z,7.60
2018-04-01T14:25:34.809Z,7.60
2018-04-01T14:28:01.898Z,7.70
2018-04-01T14:30:28.923Z,7.70
2018-04-01T14:32:57.043Z,7.70
2018-04-01T14:35:24.082Z,7.60
2018-04-01T14:37:51.130Z,7.60
2018-04-01T14:40:18.191Z,7.70
2018-04-01T14:42:45.264Z,7.70
2018-04-01T14:45:12.302Z,7.70
2018-04-01T14:47:39.487Z,7.60
2018-04-01T14:50:06.516Z,7.70
2018-04-01T14:52:33.573Z,7.70
2018-04-01T14:55:01.383Z,7.60
2018-04-01T14:57:28.436Z,7.60
2018-04-01T14:59:55.484Z,7.60
2018-04-01T15:02:22.586Z,7.70
2018-04-01T15:04:49.619Z,7.80
2018-04-01T15:07:18.055Z,7.80
2018-04-01T15:09:45.123Z,7.80
2018-04-01T15:12:12.161Z,7.90
2018-04-01T15:14:39.192Z,7.80
2018-04-01T15:17:06.256Z,7.80
2018-04-01T15:19:33.339Z,7.80
2018-04-01T15:22:00.424Z,7.70
2018-04-01T15:24:27.507Z,7.80
2018-04-01T15:26:54.536Z,7.70
2018-04-01T15:29:22.540Z,7.70
2018-04-01T15:31:49.567Z,7.70
2018-04-01T15:34:16.601Z,7.80
2018-04-01T15:36:43.636Z,7.70
2018-04-01T15:39:11.479Z,7.80
2018-04-01T15:41:38.557Z,7.80
2018-04-01T15:44:06.361Z,7.90
2018-04-01T15:46:33.406Z,7.90
2018-04-01T15:49:00.466Z,7.90
2018-04-01T15:51:27.574Z,7.90
2018-04-01T15:53:55.387Z,7.80
2018-04-01T15:56:22.577Z,7.80
2018-04-01T15:58:49.649Z,7.80
2018-04-01T16:01:16.675Z,7.80
2018-04-01T16:03:43.937Z,7.90
2018-04-01T16:06:10.984Z,7.80
2018-04-01T16:08:38.793Z,7.80
2018-04-01T16:11:05.923Z,7.70
2018-04-01T16:13:32.959Z,7.70
2018-04-01T16:16:00.781Z,7.60
2018-04-01T16:18:27.888Z,7.60
2018-04-01T16:20:54.927Z,7.50
2018-04-01T16:23:21.955Z,7.60
2018-04-01T16:25:48.983Z,7.50
2018-04-01T16:28:16.015Z,7.50
2018-04-01T16:30:43.073Z,7.50
2018-04-01T16:33:10.116Z,7.40
2018-04-01T16:35:37.252Z,7.40
2018-04-01T16:38:04.333Z,7.40
2018-04-01T16:40:31.385Z,7.40
2018-04-01T16:42:58.411Z,7.40
2018-04-01T16:45:25.459Z,7.40
2018-04-01T16:47:52.552Z,7.30
2018-04-01T16:50:19.598Z,7.30
2018-04-01T16:52:46.642Z,7.30
2018-04-01T16:55:13.696Z,7.30
2018-04-01T16:57:40.761Z,7.30
2018-04-01T17:00:08.575Z,7.40
2018-04-01T17:02:35.614Z,7.40
2018-04-01T17:05:02.665Z,7.40
2018-04-01T17:07:30.355Z,7.40
2018-04-01T17:09:57.450Z,7.40
2018-04-01T17:12:25.267Z,7.60
2018-04-01T17:14:52.303Z,7.60
2018-04-01T17:17:19.342Z,7.50
2018-04-01T17:19:46.376Z,7.50
2018-04-01T17:22:14.191Z,7.60
2018-04-01T17:24:41.239Z,7.60
2018-04-01T17:27:08.320Z,7.60
2018-04-01T17:29:35.362Z,7.50
2018-04-01T17:32:03.034Z,7.50
2018-04-01T17:34:30.864Z,7.50
2018-04-01T17:36:57.921Z,7.50
2018-04-01T17:39:24.984Z,7.50
2018-04-01T17:41:53.784Z,7.40
2018-04-01T17:44:21.592Z,7.40
2018-04-01T17:46:48.632Z,7.40
2018-04-01T17:49:15.668Z,7.40
2018-04-01T17:51:42.701Z,7.30
2018-04-01T17:54:10.556Z,7.30
2018-04-01T17:56:37.633Z,7.30
2018-04-01T17:59:04.690Z,7.30
2018-04-01T18:01:31.723Z,7.30
2018-04-01T18:03:59.535Z,7.10
2018-04-01T18:06:26.583Z,7.10
2018-04-01T18:08:53.636Z,7.10
2018-04-01T18:11:20.667Z,7.10
2018-04-01T18:13:47.700Z,7.10
2018-04-01T18:16:14.945Z,7.10
2018-04-01T18:18:43.056Z,7.00
2018-04-01T18:21:10.138Z,7.10
2018-04-01T18:23:37.374Z,7.10
2018-04-01T18:26:04.429Z,7.10
2018-04-01T18:28:31.476Z,7.10
2018-04-01T18:30:58.522Z,7.10
2018-04-01T18:33:25.640Z,7.10
2018-04-01T18:35:52.688Z,7.10
2018-04-01T18:38:19.731Z,7.10
2018-04-01T18:40:46.765Z,7.00
2018-04-01T18:43:14.570Z,7.00
2018-04-01T18:45:41.606Z,6.90
2018-04-01T18:48:08.639Z,7.00
2018-04-01T18:50:35.682Z,6.80
2018-04-01T18:53:02.729Z,6.90
2018-04-01T18:55:30.543Z,6.90
2018-04-01T18:57:57.598Z,6.90
2018-04-01T19:00:24.668Z,6.90
2018-04-01T19:02:51.743Z,6.90
2018-04-01T19:05:19.556Z,6.80
2018-04-01T19:07:46.592Z,6.80
2018-04-01T19:10:13.702Z,6.80
2018-04-01T19:12:41.513Z,6.80
2018-04-01T19:15:08.601Z,6.70
2018-04-01T19:17:36.185Z,6.70
2018-04-01T19:20:03.795Z,6.70
2018-04-01T19:22:31.339Z,6.70
2018-04-01T19:24:59.644Z,6.60
2018-04-01T19:27:27.183Z,6.60
2018-04-01T19:29:54.710Z,6.60
2018-04-01T19:32:22.268Z,6.60
2018-04-01T19:34:49.802Z,6.50
2018-04-01T19:37:17.383Z,6.50
2018-04-01T19:39:44.931Z,6.40
2018-04-01T19:42:13.080Z,6.30
2018-04-01T19:44:40.635Z,6.30
2018-04-01T19:47:08.180Z,6.30
2018-04-01T19:49:35.883Z,6.20
2018-04-01T19:52:03.426Z,6.20
2018-04-01T19:54:30.960Z,6.20
2018-04-01T19:56:58.544Z,6.20
2018-04-01T19:59:26.076Z,6.20
2018-04-01T20:01:53.808Z,6.10
2018-04-01T20:04:21.456Z,6.10
2018-04-01T20:06:49.021Z,6.10
2018-04-01T20:09:16.560Z,6.00
2018-04-01T20:11:44.099Z,5.90
2018-04-01T20:14:11.620Z,5.90
2018-04-01T20:16:39.193Z,5.80
2018-04-01T20:19:06.731Z,5.70
2018-04-01T20:21:34.271Z,5.70
2018-04-01T20:24:01.805Z,5.60
2018-04-01T20:26:29.367Z,5.60
2018-04-01T20:28:56.918Z,5.50
2018-04-01T20:31:24.591Z,5.50
2018-04-01T20:33:52.245Z,5.40
2018-04-01T20:36:20.664Z,5.40
2018-04-01T20:38:48.197Z,5.30
2018-04-01T20:41:15.721Z,5.30
2018-04-01T20:43:43.967Z,5.30
2018-04-01T20:46:11.566Z,5.20
2018-04-01T20:48:39.201Z,5.10
2018-04-01T20:51:06.724Z,5.10
2018-04-01T20:53:34.245Z,5.10
2018-04-01T20:56:01.792Z,5.10
2018-04-01T20:58:30.769Z,5.00
2018-04-01T21:00:58.301Z,5.00
2018-04-01T21:03:25.837Z,5.00
2018-04-01T21:05:53.413Z,4.90
2018-04-01T21:08:20.934Z,4.80
2018-04-01T21:10:48.493Z,4.80
2018-04-01T21:13:16.074Z,4.80
2018-04-01T21:15:43.628Z,4.70
2018-04-01T21:18:11.307Z,4.70
2018-04-01T21:20:38.859Z,4.70
2018-04-01T21:23:06.380Z,4.50
2018-04-01T21:25:33.908Z,4.50
2018-04-01T21:28:01.452Z,4.60
2018-04-01T21:30:28.985Z,4.60
2018-04-01T21:32:57.289Z,4.60
2018-04-01T21:35:25.068Z,4.60
2018-04-01T21:37:52.603Z,4.60
2018-04-01T21:40:20.127Z,4.60
2018-04-01T21:42:47.723Z,4.40
2018-04-01T21:45:15.248Z,4.40
2018-04-01T21:47:42.794Z,4.40
2018-04-01T21:50:10.320Z,4.20
2018-04-01T21:52:37.855Z,4.30
2018-04-01T21:55:06.147Z,4.20
2018-04-01T21:57:33.704Z,4.20
2018-04-01T22:00:01.248Z,4.30
2018-04-01T22:02:29.539Z,4.30
2018-04-01T22:04:57.131Z,4.20
2018-04-01T22:07:24.657Z,4.20
2018-04-01T22:09:52.944Z,4.20
2018-04-01T22:12:20.464Z,4.20
2018-04-01T22:14:48.107Z,4.30
2018-04-01T22:17:15.605Z,4.30
2018-04-01T22:19:43.179Z,4.20
2018-04-01T22:22:11.407Z,4.10
2018-04-01T22:24:38.941Z,4.10
2018-04-01T22:27:06.464Z,4.10
2018-04-01T22:29:34.740Z,4.00
2018-04-01T22:32:03.129Z,4.10
2018-04-01T22:34:30.754Z,4.10
2018-04-01T22:36:58.303Z,4.10
2018-04-01T22:39:25.948Z,4.20
2018-04-01T22:41:53.475Z,4.20
2018-04-01T22:44:21.028Z,4.30
2018-04-01T22:46:49.323Z,4.40
2018-04-01T22:49:16.845Z,4.40
2018-04-01T22:51:44.390Z,4.40
2018-04-01T22:54:11.912Z,4.40
2018-04-01T22:56:39.444Z,4.30
2018-04-01T22:59:06.972Z,4.30
2018-04-01T23:01:34.489Z,4.40
2018-04-01T23:04:02.044Z,4.50
2018-04-01T23:06:29.589Z,4.50
2018-04-01T23:08:57.874Z,4.50
2018-04-01T23:11:25.446Z,4.40
2018-04-01T23:13:52.972Z,4.30
2018-04-01T23:16:20.584Z,4.30
2018-04-01T23:18:48.127Z,4.40
2018-04-01T23:21:15.662Z,4.30
2018-04-01T23:23:43.191Z,4.30
2018-04-01T23:26:10.716Z,4.40
2018-04-01T23:28:38.236Z,4.40
2018-04-01T23:31:05.762Z,4.50
2018-04-01T23:33:33.284Z,4.50
2018-04-01T23:36:00.828Z,4.60
2018-04-01T23:38:28.365Z,4.50
2018-04-01T23:40:55.930Z,4.50
2018-04-01T23:43:23.466Z,4.50
2018-04-01T23:45:50.989Z,4.50
2018-04-01T23:48:19.335Z,4.50
2018-04-01T23:50:46.864Z,4.50
2018-04-01T23:53:14.382Z,4.60
2018-04-01T23:55:41.904Z,4.60
2018-04-01T23:58:09.439Z,4.60
